Time;durP1;ratioP1;P1;durP2;ratioP2;P2;SDS_P1;SDS_P2;PMS_P1;PMS_P2;Temp;Humidity;BMP_temperature;BMP_pressure;BME280_temperature;BME280_humidity;BME280_pressure;Samples;Min_cycle;Max_cycle;Signal;HPM_P1;HPM_P2
2022/03/26 00:02:06;;;;;;;47.17;26.07;;;;;;;1.35;100.00;102019.31;4983835;28;20209;-67
2022/03/26 00:04:33;;;;;;;46.90;26.50;;;;;;;1.35;100.00;102014.16;4983239;28;20215;-67
2022/03/26 00:06:59;;;;;;;46.03;24.50;;;;;;;1.40;100.00;102011.75;4981203;28;20253;-67
2022/03/26 00:09:25;;;;;;;47.83;25.73;;;;;;;1.28;100.00;102025.06;4978548;28;20311;-67
2022/03/26 00:11:52;;;;;;;47.93;26.17;;;;;;;1.24;100.00;102024.09;4984914;28;20860;-67
2022/03/26 00:14:18;;;;;;;44.90;25.10;;;;;;;1.26;100.00;102014.72;4980806;28;20213;-67
2022/03/26 00:16:46;;;;;;;45.50;26.07;;;;;;;1.20;100.00;102018.81;4981120;28;20213;-67
2022/03/26 00:19:12;;;;;;;50.90;25.60;;;;;;;1.20;100.00;102019.69;4984098;28;20221;-67
2022/03/26 00:21:38;;;;;;;49.00;25.63;;;;;;;1.16;100.00;102017.78;4977394;28;20210;-67
2022/03/26 00:24:06;;;;;;;48.80;25.33;;;;;;;1.07;100.00;102017.47;4980488;28;21558;-67
2022/03/26 00:26:33;;;;;;;44.30;24.40;;;;;;;1.03;100.00;102016.50;4983225;28;20625;-67
2022/03/26 00:28:59;;;;;;;46.57;24.47;;;;;;;1.05;100.00;102012.28;4982806;28;20217;-67
2022/03/26 00:31:26;;;;;;;51.57;25.53;;;;;;;1.10;100.00;102009.91;4983345;28;20577;-67
2022/03/26 00:33:54;;;;;;;49.00;25.37;;;;;;;1.03;100.00;102013.06;4980362;28;20215;-67
2022/03/26 00:36:20;;;;;;;47.27;24.67;;;;;;;0.99;100.00;102018.94;4986572;28;20391;-67
2022/03/26 00:38:47;;;;;;;44.30;24.30;;;;;;;1.00;100.00;102018.09;4979691;28;20217;-68
2022/03/26 00:41:13;;;;;;;45.37;23.17;;;;;;;0.96;100.00;102014.53;4988485;28;20205;-67
2022/03/26 00:43:40;;;;;;;46.47;25.30;;;;;;;0.88;100.00;102010.81;4980150;28;20205;-67
2022/03/26 00:46:06;;;;;;;50.67;25.37;;;;;;;0.85;100.00;102013.28;4980878;28;20217;-66
2022/03/26 00:48:32;;;;;;;45.57;25.10;;;;;;;0.89;100.00;102016.00;4980774;28;20729;-67
2022/03/26 00:51:01;;;;;;;44.43;24.50;;;;;;;0.93;100.00;102010.19;4979994;28;20287;-68
2022/03/26 00:53:27;;;;;;;46.67;23.70;;;;;;;0.89;100.00;102013.44;4980450;28;20551;-67
2022/03/26 00:55:54;;;;;;;44.33;24.67;;;;;;;0.86;100.00;102004.75;4983757;28;20204;-67
2022/03/26 00:58:20;;;;;;;46.63;25.33;;;;;;;0.72;100.00;102010.28;4983065;28;20447;-67
2022/03/26 01:00:46;;;;;;;41.97;23.13;;;;;;;0.74;100.00;102006.06;4980800;28;20217;-66
2022/03/26 01:03:15;;;;;;;47.37;24.50;;;;;;;0.75;100.00;102006.94;4980674;28;20206;-67
2022/03/26 01:05:41;;;;;;;48.77;24.33;;;;;;;0.73;100.00;101995.75;4981672;28;20232;-67
2022/03/26 01:08:09;;;;;;;46.13;24.47;;;;;;;0.68;100.00;102004.97;4984273;28;20632;-67
2022/03/26 01:10:36;;;;;;;51.37;24.77;;;;;;;0.58;100.00;101996.03;4976648;28;20242;-67
2022/03/26 01:13:02;;;;;;;45.43;23.63;;;;;;;0.53;100.00;101990.75;4978865;28;20217;-66
2022/03/26 01:15:29;;;;;;;49.93;24.87;;;;;;;0.57;100.00;102000.31;4977450;28;20216;-67
2022/03/26 01:17:56;;;;;;;44.80;24.33;;;;;;;0.64;100.00;101987.72;4984009;28;20209;-67
2022/03/26 01:20:23;;;;;;;46.73;23.87;;;;;;;0.72;100.00;101988.84;4980975;28;20705;-66
2022/03/26 01:22:49;;;;;;;45.07;23.10;;;;;;;0.69;100.00;101983.63;4985387;28;20216;-67
2022/03/26 01:25:17;;;;;;;42.00;21.87;;;;;;;0.60;100.00;101986.75;4978910;28;20267;-67
2022/03/26 01:27:44;;;;;;;44.67;22.50;;;;;;;0.57;100.00;101989.19;4982037;28;20673;-67
2022/03/26 01:30:11;;;;;;;42.40;22.27;;;;;;;0.59;100.00;101984.97;4979412;28;20248;-67
2022/03/26 01:32:38;;;;;;;47.03;23.93;;;;;;;0.58;100.00;101978.06;4978817;28;20587;-67
2022/03/26 01:35:05;;;;;;;44.47;23.33;;;;;;;0.56;100.00;101977.16;4979916;28;20206;-67
2022/03/26 01:37:32;;;;;;;39.13;21.93;;;;;;;0.56;100.00;101978.06;4983602;28;20215;-67
2022/03/26 01:39:58;;;;;;;40.47;23.77;;;;;;;0.62;100.00;101976.53;4981258;28;20220;-67
2022/03/26 01:42:26;;;;;;;41.67;23.30;;;;;;;0.62;100.00;101979.97;4976448;28;20210;-67
2022/03/26 01:44:52;;;;;;;40.50;23.10;;;;;;;0.53;100.00;101983.06;4977131;28;20472;-67
2022/03/26 01:47:19;;;;;;;43.33;23.23;;;;;;;0.40;100.00;101975.72;4980665;28;20212;-67
2022/03/26 01:49:45;;;;;;;40.70;21.07;;;;;;;0.43;100.00;101972.41;4977192;28;20717;-67
2022/03/26 01:52:12;;;;;;;40.50;21.90;;;;;;;0.45;100.00;101971.63;4979360;28;20209;-67
2022/03/26 01:54:39;;;;;;;45.60;23.03;;;;;;;0.32;100.00;101974.56;4976730;28;21757;-67
2022/03/26 01:57:10;;;;;;;42.77;22.57;;;;;;;0.38;100.00;101977.34;4980848;28;20194;-67
2022/03/26 01:59:39;;;;;;;43.77;21.37;;;;;;;0.38;100.00;101967.09;4977718;28;20228;-67
2022/03/26 02:02:06;;;;;;;39.37;22.07;;;;;;;0.41;100.00;101966.34;4981385;28;20215;-67
2022/03/26 02:04:34;;;;;;;39.33;21.50;;;;;;;0.42;100.00;101963.81;4977245;28;20705;-67
2022/03/26 02:07:02;;;;;;;39.60;20.80;;;;;;;0.44;100.00;101969.00;4979638;28;20284;-67
2022/03/26 02:09:33;;;;;;;50.13;21.43;;;;;;;0.38;100.00;101954.25;4977881;28;20228;-67
2022/03/26 02:12:00;;;;;;;43.23;21.60;;;;;;;0.35;100.00;101954.16;4978666;28;20213;-67
2022/03/26 02:14:26;;;;;;;42.10;22.93;;;;;;;0.29;100.00;101951.38;4981067;28;20213;-67
2022/03/26 02:16:54;;;;;;;38.73;20.63;;;;;;;0.35;100.00;101951.56;4981118;28;20227;-67
2022/03/26 02:19:21;;;;;;;38.07;21.30;;;;;;;0.33;100.00;101956.66;4979011;28;20220;-67
2022/03/26 02:21:49;;;;;;;37.90;21.30;;;;;;;0.36;100.00;101951.63;4979250;28;20205;-68
2022/03/26 02:24:16;;;;;;;41.20;19.70;;;;;;;0.34;100.00;101950.72;4983130;28;20565;-66
2022/03/26 02:26:43;;;;;;;40.23;20.50;;;;;;;0.30;100.00;101956.56;4978855;28;20206;-67
2022/03/26 02:29:12;;;;;;;36.90;19.83;;;;;;;0.22;100.00;101950.25;4981825;28;20225;-67
2022/03/26 02:31:39;;;;;;;37.57;19.43;;;;;;;0.33;100.00;101953.22;4981912;28;20582;-66
2022/03/26 02:34:07;;;;;;;36.43;19.87;;;;;;;0.36;100.00;101953.34;4980431;28;20204;-67
2022/03/26 02:36:34;;;;;;;37.67;19.97;;;;;;;0.43;100.00;101954.44;4978719;28;20197;-67
2022/03/26 02:39:03;;;;;;;38.40;20.73;;;;;;;0.32;100.00;101949.78;4978425;28;20207;-67
2022/03/26 02:41:31;;;;;;;41.07;20.17;;;;;;;0.32;100.00;101947.22;4977608;28;20212;-67
2022/03/26 02:43:57;;;;;;;37.57;20.50;;;;;;;0.30;100.00;101948.88;4985187;28;20637;-67
2022/03/26 02:46:23;;;;;;;39.57;20.20;;;;;;;0.34;100.00;101947.28;4981870;28;20717;-67
2022/03/26 02:48:50;;;;;;;35.93;19.90;;;;;;;0.34;100.00;101945.56;4979537;28;20209;-67
2022/03/26 02:51:16;;;;;;;37.67;18.93;;;;;;;0.35;100.00;101942.22;4976398;28;20201;-67
2022/03/26 02:53:43;;;;;;;38.73;20.30;;;;;;;0.32;100.00;101943.78;4982458;28;20558;-67
2022/03/26 02:56:10;;;;;;;37.40;19.23;;;;;;;0.30;100.00;101943.72;4979452;28;20197;-67
2022/03/26 02:58:37;;;;;;;34.47;19.03;;;;;;;0.27;100.00;101937.63;4977457;28;20212;-67
2022/03/26 03:01:03;;;;;;;38.10;19.90;;;;;;;0.24;100.00;101946.06;4979040;28;20225;-67
2022/03/26 03:03:29;;;;;;;39.60;19.07;;;;;;;0.22;100.00;101944.25;4981678;28;20209;-67
2022/03/26 03:05:56;;;;;;;37.10;19.67;;;;;;;0.29;100.00;101941.09;4982387;28;20233;-67
2022/03/26 03:08:22;;;;;;;38.97;19.73;;;;;;;0.24;100.00;101946.06;4983263;28;20685;-67
2022/03/26 03:10:49;;;;;;;38.10;19.67;;;;;;;0.29;100.00;101944.53;4980622;28;20232;-67
2022/03/26 03:13:20;;;;;;;37.37;19.27;;;;;;;0.32;100.00;101943.78;4977561;28;20213;-66
2022/03/26 03:15:47;;;;;;;31.83;18.00;;;;;;;0.30;100.00;101946.28;4978522;28;20469;-67
2022/03/26 03:18:13;;;;;;;34.80;18.80;;;;;;;0.26;100.00;101946.97;4979465;28;20200;-67
2022/03/26 03:20:40;;;;;;;41.13;18.53;;;;;;;0.30;100.00;101942.84;4981879;28;20232;-67
2022/03/26 03:23:06;;;;;;;38.00;19.97;;;;;;;0.44;100.00;101943.34;4981137;28;20797;-67
2022/03/26 03:25:32;;;;;;;36.87;19.67;;;;;;;0.40;100.00;101944.94;4985334;28;20226;-67
2022/03/26 03:27:59;;;;;;;39.63;18.50;;;;;;;0.28;100.00;101945.38;4979884;28;20209;-67
2022/03/26 03:30:27;;;;;;;37.50;18.93;;;;;;;0.23;100.00;101940.84;4980856;28;20247;-67
2022/03/26 03:32:54;;;;;;;41.07;19.57;;;;;;;0.10;100.00;101949.78;4981019;28;20212;-67
2022/03/26 03:35:21;;;;;;;34.10;19.37;;;;;;;-0.01;100.00;101949.38;4984325;28;20218;-67
2022/03/26 03:37:47;;;;;;;35.30;19.53;;;;;;;0.01;100.00;101952.88;4984570;28;20260;-67
2022/03/26 03:40:14;;;;;;;41.00;18.77;;;;;;;0.21;100.00;101953.63;4986378;28;20220;-67
2022/03/26 03:42:40;;;;;;;38.83;19.07;;;;;;;0.15;100.00;101953.41;4984249;28;20205;-67
2022/03/26 03:45:08;;;;;;;34.23;18.63;;;;;;;0.10;100.00;101944.66;4985745;28;20296;-67
2022/03/26 03:47:36;;;;;;;38.10;18.87;;;;;;;0.01;100.00;101949.44;4980184;28;20214;-67
2022/03/26 03:50:03;;;;;;;35.47;18.43;;;;;;;0.00;100.00;101943.47;4985965;28;20224;-67
2022/03/26 03:52:30;;;;;;;34.20;18.40;;;;;;;-0.05;100.00;101939.84;4981708;28;20213;-67
2022/03/26 03:54:56;;;;;;;35.27;17.77;;;;;;;-0.08;100.00;101939.72;4986654;28;20193;-67
2022/03/26 03:57:22;;;;;;;32.80;18.63;;;;;;;-0.11;100.00;101937.88;4983941;28;20219;-67
2022/03/26 03:59:49;;;;;;;34.83;18.97;;;;;;;-0.07;100.00;101937.22;4980659;28;20222;-67
2022/03/26 04:02:16;;;;;;;36.20;20.17;;;;;;;-0.14;100.00;101932.66;4979951;28;20213;-68
2022/03/26 04:04:43;;;;;;;39.43;18.80;;;;;;;-0.05;100.00;101935.56;4981434;28;20209;-67
2022/03/26 04:07:10;;;;;;;39.60;19.87;;;;;;;0.05;100.00;101939.34;4981081;28;20223;-67
2022/03/26 04:09:37;;;;;;;34.90;17.93;;;;;;;0.10;100.00;101929.28;4981723;28;20229;-67
2022/03/26 04:12:04;;;;;;;38.07;19.40;;;;;;;0.13;100.00;101931.97;4983242;28;20202;-67
2022/03/26 04:14:31;;;;;;;38.40;18.20;;;;;;;0.12;100.00;101933.66;4982851;28;20576;-67
2022/03/26 04:16:58;;;;;;;40.07;19.60;;;;;;;0.01;100.00;101934.94;4982141;28;20205;-67
2022/03/26 04:19:24;;;;;;;33.37;17.43;;;;;;;-0.08;100.00;101932.88;4980566;28;20229;-67
2022/03/26 04:21:52;;;;;;;32.87;18.33;;;;;;;-0.17;100.00;101926.56;4984304;28;20210;-67
2022/03/26 04:24:18;;;;;;;37.63;18.50;;;;;;;-0.17;100.00;101927.41;4982015;28;20211;-67
2022/03/26 04:26:45;;;;;;;39.57;18.77;;;;;;;-0.15;100.00;101930.91;4983491;28;20225;-67
2022/03/26 04:29:11;;;;;;;38.33;18.27;;;;;;;-0.13;100.00;101931.84;4983509;28;20311;-66
2022/03/26 04:31:37;;;;;;;36.17;18.70;;;;;;;-0.16;100.00;101935.97;4981934;28;20201;-67
2022/03/26 04:34:04;;;;;;;35.63;18.43;;;;;;;-0.04;100.00;101933.88;4984326;28;20198;-67
2022/03/26 04:36:31;;;;;;;34.50;17.73;;;;;;;-0.01;100.00;101934.88;4983971;28;20578;-67
2022/03/26 04:38:59;;;;;;;35.60;19.13;;;;;;;0.04;100.00;101939.31;4980044;28;20209;-67
2022/03/26 04:41:26;;;;;;;38.87;18.40;;;;;;;0.11;100.00;101941.28;4982663;28;20312;-67
2022/03/26 04:43:52;;;;;;;37.17;18.03;;;;;;;-0.01;100.00;101941.69;4982387;28;20208;-66
2022/03/26 04:46:19;;;;;;;37.67;17.60;;;;;;;-0.08;100.00;101935.44;4982970;28;20221;-67
2022/03/26 04:48:46;;;;;;;37.83;18.17;;;;;;;-0.14;100.00;101934.34;4981965;28;20212;-67
2022/03/26 04:51:12;;;;;;;32.00;18.43;;;;;;;-0.11;100.00;101931.91;4984579;28;20213;-66
2022/03/26 04:53:39;;;;;;;34.77;17.27;;;;;;;-0.10;100.00;101928.53;4982294;28;20201;-67
2022/03/26 04:56:07;;;;;;;34.53;19.13;;;;;;;-0.16;100.00;101939.41;4985097;28;20236;-67
2022/03/26 04:58:33;;;;;;;35.80;18.47;;;;;;;-0.11;100.00;101942.16;4977115;28;20205;-67
2022/03/26 05:01:00;;;;;;;43.10;20.73;;;;;;;0.01;100.00;101945.19;4984722;28;20224;-67
2022/03/26 05:03:26;;;;;;;38.77;18.67;;;;;;;0.12;100.00;101941.34;4977257;28;20291;-67
2022/03/26 05:05:53;;;;;;;39.77;19.13;;;;;;;0.02;100.00;101943.50;4983470;28;20502;-67
2022/03/26 05:08:19;;;;;;;41.23;19.67;;;;;;;-0.04;100.00;101944.13;4978809;28;20202;-67
2022/03/26 05:10:46;;;;;;;40.47;18.67;;;;;;;-0.01;100.00;101941.69;4979761;28;20228;-67
2022/03/26 05:13:13;;;;;;;38.63;17.67;;;;;;;-0.08;100.00;101943.16;4982791;28;20236;-67
2022/03/26 05:15:40;;;;;;;42.80;18.80;;;;;;;-0.04;100.00;101947.56;4981411;28;20197;-67
2022/03/26 05:18:06;;;;;;;38.40;19.17;;;;;;;-0.06;100.00;101946.63;4983552;28;20205;-67
2022/03/26 05:20:32;;;;;;;41.43;18.83;;;;;;;-0.06;100.00;101943.22;4981115;28;20223;-67
2022/03/26 05:23:01;;;;;;;42.53;19.50;;;;;;;-0.02;100.00;101943.41;4985794;28;20666;-67
2022/03/26 05:25:27;;;;;;;38.70;18.67;;;;;;;-0.01;100.00;101929.75;4978665;28;20237;-67
2022/03/26 05:27:54;;;;;;;41.57;20.33;;;;;;;-0.01;100.00;101939.13;4980510;28;20207;-67
2022/03/26 05:30:22;;;;;;;44.43;20.03;;;;;;;0.05;100.00;101939.34;5000277;23;20236;-75
2022/03/26 05:32:48;;;;;;;38.77;19.40;;;;;;;0.01;100.00;101937.50;4995611;28;20209;-74
2022/03/26 05:35:16;;;;;;;39.70;17.70;;;;;;;-0.02;100.00;101945.97;4997323;28;20211;-74
2022/03/26 05:37:43;;;;;;;38.83;19.03;;;;;;;0.11;100.00;101943.88;4995079;28;20202;-74
2022/03/26 05:40:11;;;;;;;44.17;20.23;;;;;;;0.11;100.00;101944.72;4997104;28;20232;-73
2022/03/26 05:42:38;;;;;;;46.97;21.07;;;;;;;0.16;100.00;101947.47;4996084;28;20207;-75
2022/03/26 05:45:05;;;;;;;44.83;21.83;;;;;;;0.25;100.00;101952.94;4999255;28;20748;-74
2022/03/26 05:47:33;;;;;;;48.90;21.17;;;;;;;0.33;100.00;101955.78;4998472;28;20232;-74
2022/03/26 05:50:00;;;;;;;56.37;22.20;;;;;;;0.47;100.00;101964.84;4996244;28;20241;-73
2022/03/26 05:52:27;;;;;;;46.00;22.60;;;;;;;0.60;100.00;101970.44;4996507;28;20205;-75
2022/03/26 05:54:53;;;;;;;54.90;22.77;;;;;;;0.74;100.00;101974.41;4992990;28;20223;-74
2022/03/26 05:57:20;;;;;;;54.73;22.57;;;;;;;0.78;100.00;101983.09;4998028;28;20227;-74
2022/03/26 05:59:46;;;;;;;53.37;23.60;;;;;;;0.76;100.00;101985.59;4995975;28;20534;-73
2022/03/26 06:02:13;;;;;;;54.83;23.70;;;;;;;0.88;100.00;101978.31;4993045;28;20205;-75
2022/03/26 06:04:41;;;;;;;54.23;24.40;;;;;;;0.93;100.00;101989.63;4995142;28;20219;-75
2022/03/26 06:07:08;;;;;;;55.43;24.53;;;;;;;0.98;100.00;101981.22;5000629;28;20669;-74
2022/03/26 06:09:34;;;;;;;60.03;27.07;;;;;;;1.08;100.00;101967.88;4990232;28;20208;-75
2022/03/26 06:12:00;;;;;;;61.93;27.50;;;;;;;1.17;100.00;101968.16;4998483;28;20590;-73
2022/03/26 06:14:27;;;;;;;67.97;28.80;;;;;;;1.27;100.00;101969.38;4991968;28;20204;-75
2022/03/26 06:16:53;;;;;;;67.80;29.87;;;;;;;1.39;100.00;101959.50;4996801;28;20657;-75
2022/03/26 06:19:19;;;;;;;67.57;29.23;;;;;;;1.51;100.00;101961.56;4993276;28;20605;-74
2022/03/26 06:21:47;;;;;;;71.17;28.40;;;;;;;1.60;100.00;101961.88;4995520;28;20219;-75
2022/03/26 06:24:14;;;;;;;67.27;29.07;;;;;;;1.76;100.00;101959.78;4994388;28;20208;-74
2022/03/26 06:26:43;;;;;;;70.10;32.50;;;;;;;1.91;100.00;101965.41;4995649;28;20514;-75
2022/03/26 06:29:10;;;;;;;72.97;31.33;;;;;;;2.11;100.00;101970.28;4992028;28;20211;-75
2022/03/26 06:31:36;;;;;;;73.77;31.80;;;;;;;2.31;100.00;101966.63;4993937;28;20224;-74
2022/03/26 06:34:03;;;;;;;68.33;31.20;;;;;;;2.46;100.00;101971.31;4996359;28;20228;-75
2022/03/26 06:36:29;;;;;;;70.13;31.80;;;;;;;2.64;100.00;101963.25;4995370;28;20219;-73
2022/03/26 06:38:57;;;;;;;71.40;31.10;;;;;;;2.80;100.00;101970.56;4994817;28;20211;-74
2022/03/26 06:41:24;;;;;;;67.13;31.73;;;;;;;2.95;100.00;101972.69;4990042;28;20744;-74
2022/03/26 06:43:50;;;;;;;67.80;30.53;;;;;;;3.12;100.00;101969.69;4992407;28;20288;-74
2022/03/26 06:46:17;;;;;;;62.73;29.83;;;;;;;3.28;100.00;101976.13;4990788;28;20702;-75
2022/03/26 06:48:43;;;;;;;60.13;28.10;;;;;;;3.36;100.00;101982.31;4991204;28;20205;-74
2022/03/26 06:51:09;;;;;;;61.73;27.93;;;;;;;3.50;100.00;101973.25;4990803;28;20710;-75
2022/03/26 06:53:37;;;;;;;56.67;27.23;;;;;;;3.65;100.00;101983.03;4988276;28;20210;-75
2022/03/26 06:56:06;;;;;;;52.30;26.53;;;;;;;3.83;100.00;101977.44;4991469;28;20207;-75
2022/03/26 06:58:32;;;;;;;51.00;24.80;;;;;;;4.01;100.00;101973.53;4986293;28;20216;-73
2022/03/26 07:00:59;;;;;;;53.23;27.03;;;;;;;4.14;100.00;101973.84;4991838;28;20600;-75
2022/03/26 07:03:26;;;;;;;56.33;26.30;;;;;;;4.32;100.00;101970.78;4993105;28;20664;-74
2022/03/26 07:05:53;;;;;;;45.67;24.40;;;;;;;4.47;100.00;101977.13;4990956;28;20208;-75
2022/03/26 07:08:19;;;;;;;48.77;25.00;;;;;;;4.61;100.00;101974.81;4991408;28;20562;-75
2022/03/26 07:10:46;;;;;;;48.90;24.70;;;;;;;4.77;100.00;101987.19;4987333;28;20221;-74
2022/03/26 07:13:14;;;;;;;43.73;22.50;;;;;;;4.89;100.00;101989.13;4993556;28;20621;-75
2022/03/26 07:15:40;;;;;;;43.30;22.97;;;;;;;5.05;100.00;101980.84;4985330;28;20201;-75
2022/03/26 07:18:07;;;;;;;42.43;23.17;;;;;;;5.17;100.00;101985.38;4990773;28;20212;-75
2022/03/26 07:20:33;;;;;;;42.10;22.90;;;;;;;5.34;100.00;101988.22;4994361;28;20223;-74
2022/03/26 07:23:00;;;;;;;43.83;23.63;;;;;;;5.52;100.00;101979.91;4988545;28;20626;-75
2022/03/26 07:25:26;;;;;;;40.87;23.03;;;;;;;5.63;100.00;101983.56;4986400;28;20613;-74
2022/03/26 07:27:52;;;;;;;47.03;22.97;;;;;;;5.79;100.00;101986.38;4994750;28;20590;-75
2022/03/26 07:30:20;;;;;;;40.10;20.90;;;;;;;6.01;100.00;101985.00;4994757;28;20232;-74
2022/03/26 07:32:47;;;;;;;43.93;20.80;;;;;;;6.24;100.00;101983.63;4995075;28;20197;-74
2022/03/26 07:35:13;;;;;;;40.70;21.67;;;;;;;6.35;100.00;101988.94;4992097;28;20200;-75
2022/03/26 07:37:40;;;;;;;41.20;20.83;;;;;;;6.58;100.00;101996.16;4988982;28;20204;-75
2022/03/26 07:40:07;;;;;;;36.53;18.93;;;;;;;6.74;100.00;102000.66;4995454;28;21216;-73
2022/03/26 07:42:34;;;;;;;42.13;20.67;;;;;;;6.86;100.00;101999.94;4991405;28;20224;-74
2022/03/26 07:45:00;;;;;;;37.73;21.33;;;;;;;7.04;100.00;101995.78;4995898;28;20296;-74
2022/03/26 07:47:28;;;;;;;37.43;20.17;;;;;;;7.19;100.00;102004.59;4985367;28;20220;-76
2022/03/26 07:49:54;;;;;;;30.17;19.10;;;;;;;7.31;99.46;101993.44;4993693;28;20645;-76
2022/03/26 07:52:21;;;;;;;33.53;19.17;;;;;;;7.55;98.72;102000.59;4987937;28;20696;-75
2022/03/26 07:54:47;;;;;;;31.33;18.10;;;;;;;7.71;97.56;101992.94;4995197;28;20197;-74
2022/03/26 07:57:13;;;;;;;30.13;18.17;;;;;;;7.88;95.99;101991.31;4992229;28;21798;-74
2022/03/26 07:59:40;;;;;;;27.17;16.77;;;;;;;8.06;95.63;101992.31;4993552;28;20298;-74
2022/03/26 08:02:07;;;;;;;29.30;18.03;;;;;;;8.26;95.32;101992.41;4989999;28;20213;-73
2022/03/26 08:04:35;;;;;;;29.70;16.60;;;;;;;8.45;94.39;101998.59;4990091;28;20216;-75
2022/03/26 08:07:01;;;;;;;25.00;17.10;;;;;;;8.49;92.77;102005.53;4997950;28;20313;-74
2022/03/26 08:09:27;;;;;;;25.17;16.90;;;;;;;8.68;91.65;102007.34;5006548;28;20214;-73
2022/03/26 08:11:54;;;;;;;28.97;16.47;;;;;;;8.87;89.79;102010.03;5002136;28;20197;-74
2022/03/26 08:14:20;;;;;;;25.83;16.07;;;;;;;8.97;89.31;102016.09;5000481;28;20197;-74
2022/03/26 08:16:46;;;;;;;24.33;15.40;;;;;;;9.08;89.48;102011.81;4998517;28;20201;-74
2022/03/26 08:19:13;;;;;;;26.60;17.33;;;;;;;9.16;89.14;102004.88;4998846;28;20205;-73
2022/03/26 08:21:40;;;;;;;28.17;16.73;;;;;;;9.26;88.43;102011.84;4998359;28;20233;-72
2022/03/26 08:24:07;;;;;;;25.40;15.60;;;;;;;9.49;86.37;102013.59;5000666;28;20204;-72
2022/03/26 08:26:33;;;;;;;30.90;17.07;;;;;;;9.54;86.29;102004.06;4998795;28;20212;-74
2022/03/26 08:29:01;;;;;;;23.50;15.23;;;;;;;9.62;87.46;101996.22;5002841;28;20210;-74
2022/03/26 08:31:29;;;;;;;24.40;16.00;;;;;;;9.77;86.81;101995.38;5003547;28;20707;-72
2022/03/26 08:33:56;;;;;;;20.10;14.47;;;;;;;9.74;84.97;102005.78;5003779;28;20212;-72
2022/03/26 08:36:24;;;;;;;24.07;14.33;;;;;;;9.83;85.24;102011.88;5005251;28;20205;-72
2022/03/26 08:38:51;;;;;;;265.60;36.07;;;;;;;10.01;83.60;102010.09;4998105;28;20223;-74
2022/03/26 08:41:20;;;;;;;29.47;15.00;;;;;;;10.34;82.50;102005.69;4997355;28;20619;-73
2022/03/26 08:43:47;;;;;;;69.43;18.53;;;;;;;10.56;82.83;102001.28;4990816;28;20272;-75
2022/03/26 08:46:14;;;;;;;41.37;13.93;;;;;;;10.44;81.78;101996.13;5001398;28;20199;-74
2022/03/26 08:48:40;;;;;;;30.17;13.90;;;;;;;10.36;81.70;101993.53;5000982;28;20327;-69
2022/03/26 08:51:06;;;;;;;20.43;13.10;;;;;;;10.41;80.32;101997.88;5006737;28;20267;-72
2022/03/26 08:53:33;;;;;;;20.63;12.70;;;;;;;10.49;81.60;101990.00;5000176;28;20196;-71
2022/03/26 08:56:01;;;;;;;22.53;13.80;;;;;;;10.58;82.13;101995.19;5000054;28;20204;-74
2022/03/26 08:58:28;;;;;;;458.57;42.80;;;;;;;10.60;80.18;101997.78;4995824;28;20319;-74
2022/03/26 09:00:54;;;;;;;30.40;13.63;;;;;;;10.68;79.46;101996.00;4994170;28;20220;-73
2022/03/26 09:03:21;;;;;;;26.03;15.10;;;;;;;10.86;80.71;101994.19;4993007;28;20205;-73
2022/03/26 09:05:48;;;;;;;24.07;12.87;;;;;;;10.90;78.00;101993.28;4997704;28;20208;-74
2022/03/26 09:08:14;;;;;;;473.43;46.57;;;;;;;11.02;78.40;101995.81;4997556;28;21868;-74
2022/03/26 09:10:41;;;;;;;95.80;18.43;;;;;;;10.94;77.63;101989.78;4994792;28;20231;-74
2022/03/26 09:13:10;;;;;;;44.63;14.53;;;;;;;10.88;78.64;101985.47;5001489;28;20214;-73
2022/03/26 09:15:36;;;;;;;27.73;16.43;;;;;;;10.79;79.29;101985.53;5000774;28;20213;-74
2022/03/26 09:18:03;;;;;;;24.17;13.70;;;;;;;10.92;78.03;101991.53;5000680;28;20197;-74
2022/03/26 09:20:30;;;;;;;18.47;12.33;;;;;;;11.11;77.80;101972.25;4988158;28;20239;-74
2022/03/26 09:22:57;;;;;;;24.43;13.70;;;;;;;11.31;77.25;101979.09;4996537;28;20296;-73
2022/03/26 09:25:24;;;;;;;24.83;13.13;;;;;;;11.36;77.06;101977.31;4998075;28;20214;-73
2022/03/26 09:27:51;;;;;;;19.73;12.53;;;;;;;11.29;76.25;101976.50;4994118;28;20232;-76
2022/03/26 09:30:19;;;;;;;17.23;11.27;;;;;;;11.48;75.63;101973.72;5001322;28;20235;-74
2022/03/26 09:32:45;;;;;;;18.77;12.97;;;;;;;11.62;76.20;101971.00;4992791;28;20306;-74
2022/03/26 09:35:13;;;;;;;22.90;12.90;;;;;;;11.78;75.59;101966.50;4994742;28;20200;-75
2022/03/26 09:37:41;;;;;;;18.17;11.50;;;;;;;11.85;74.62;101971.63;4989694;28;20574;-75
2022/03/26 09:40:09;;;;;;;22.47;13.77;;;;;;;12.01;74.86;101968.91;4998166;28;20226;-73
2022/03/26 09:42:37;;;;;;;23.93;12.00;;;;;;;12.01;74.22;101959.31;4993671;28;20211;-72
2022/03/26 09:45:06;;;;;;;25.77;11.33;;;;;;;11.97;73.95;101947.16;4997131;28;20209;-72
2022/03/26 09:47:34;;;;;;;96.80;21.20;;;;;;;11.91;73.13;101948.09;4990613;28;20229;-74
2022/03/26 09:50:01;;;;;;;754.10;68.10;;;;;;;12.17;72.78;101952.19;4998826;28;20735;-75
2022/03/26 09:52:29;;;;;;;50.40;17.53;;;;;;;12.42;70.82;101965.81;4992358;28;20199;-73
2022/03/26 09:54:57;;;;;;;24.03;12.50;;;;;;;12.50;70.89;101965.72;4993178;28;20211;-74
2022/03/26 09:57:23;;;;;;;23.10;11.27;;;;;;;12.37;70.96;101951.09;4998774;28;20872;-73
2022/03/26 09:59:49;;;;;;;22.23;12.97;;;;;;;12.29;71.80;101951.16;4994027;28;20217;-76
2022/03/26 10:02:16;;;;;;;25.87;13.27;;;;;;;12.50;70.35;101961.38;4992095;28;20217;-72
2022/03/26 10:04:44;;;;;;;21.77;11.97;;;;;;;12.52;70.66;101971.78;4988918;28;20439;-75
2022/03/26 10:07:12;;;;;;;19.00;11.63;;;;;;;12.44;68.98;101963.19;4997268;28;20223;-77
2022/03/26 10:09:39;;;;;;;23.40;11.93;;;;;;;12.49;67.11;101961.38;4991792;28;20238;-73
2022/03/26 10:12:07;;;;;;;18.37;12.33;;;;;;;12.50;67.21;101971.84;4996144;28;20225;-76
2022/03/26 10:14:43;;;;;;;16.33;11.57;;;;;;;12.46;65.97;101953.56;5001214;28;20213;-77
2022/03/26 10:17:20;;;;;;;97.03;14.83;;;;;;;12.66;66.36;101962.03;4993370;28;20289;-72
2022/03/26 10:19:50;;;;;;;17.23;10.80;;;;;;;12.98;65.07;101957.19;5000289;28;20354;-74
2022/03/26 10:22:29;;;;;;;19.60;11.47;;;;;;;12.98;64.86;101952.84;4992326;28;20215;-73
2022/03/26 10:24:56;;;;;;;19.43;11.17;;;;;;;12.96;64.33;101965.06;5000028;28;20715;-74
2022/03/26 10:27:23;;;;;;;18.30;10.70;;;;;;;13.03;64.72;101965.84;4994613;28;20224;-77
2022/03/26 10:29:51;;;;;;;20.63;11.90;;;;;;;13.02;64.29;101962.38;4997656;28;20226;-76
2022/03/26 10:32:39;;;;;;;18.33;10.60;;;;;;;12.98;63.89;101949.34;4992658;28;20200;-74
2022/03/26 10:35:23;;;;;;;17.00;9.93;;;;;;;13.19;64.04;101942.91;4995619;28;20565;-72
2022/03/26 10:37:58;;;;;;;13.80;9.70;;;;;;;13.03;63.72;101958.88;5001273;28;20197;-77
2022/03/26 10:40:28;;;;;;;44.67;12.27;;;;;;;13.15;63.99;101959.56;4993528;28;20284;-72
2022/03/26 10:47:04;;;;;;;18.57;9.50;;;;;;;13.47;64.61;101945.97;5094919;27;20381;-77
2022/03/26 10:49:32;;;;;;;13.00;8.83;;;;;;;13.55;62.56;101943.25;5081306;28;20213;-77
2022/03/26 10:52:12;;;;;;;24.00;9.83;;;;;;;13.67;63.87;101936.88;5078193;28;20213;-77
2022/03/26 10:55:58;;;;;;;14.07;9.23;;;;;;;13.61;62.11;101943.13;5102006;27;20628;-77
2022/03/26 10:58:24;;;;;;;18.13;8.97;;;;;;;13.69;61.31;101943.84;5097951;28;20197;-77
2022/03/26 11:00:52;;;;;;;20.97;10.70;;;;;;;13.81;59.48;101941.00;5097846;28;20215;-77
2022/03/26 11:03:18;;;;;;;14.40;8.80;;;;;;;13.81;59.66;101934.91;5104461;28;20302;-77
2022/03/26 11:05:46;;;;;;;12.80;8.17;;;;;;;13.82;59.54;101928.75;5097836;28;20893;-77
2022/03/26 11:08:14;;;;;;;17.30;10.43;;;;;;;14.04;60.57;101930.97;5104112;28;20204;-77
2022/03/26 11:10:41;;;;;;;15.10;9.63;;;;;;;13.99;58.71;101946.78;5098616;28;20201;-77
2022/03/26 11:13:11;;;;;;;18.53;9.80;;;;;;;14.24;58.06;101944.53;5101312;28;20860;-77
2022/03/26 11:15:42;;;;;;;15.17;9.57;;;;;;;14.44;56.43;101944.13;5105515;27;20258;-77